createdAt,value
2019-03-01T06:05:06.865Z,82.37
2019-03-01T06:07:37.311Z,74.97
2019-03-01T06:10:13.771Z,85.83
2019-03-01T06:12:57.535Z,84.13
2019-03-01T06:15:31.117Z,88.62
2019-03-01T06:18:17.832Z,77.00
2019-03-01T06:20:50.675Z,69.30
2019-03-01T06:23:33.060Z,84.58
2019-03-01T06:26:06.415Z,74.53
2019-03-01T06:28:48.576Z,75.75
2019-03-01T06:31:28.317Z,75.42
2019-03-01T06:33:58.713Z,70.10
2019-03-01T06:36:41.323Z,73.22
2019-03-01T06:42:09.325Z,68.00
2019-03-01T06:44:55.792Z,66.23
2019-03-01T06:47:29.259Z,69.05
2019-03-01T06:49:59.845Z,75.08
2019-03-01T06:52:28.603Z,75.10
2019-03-01T06:54:57.496Z,78.90
2019-03-01T06:57:26.208Z,98.92
2019-03-01T06:59:55.102Z,101.40
2019-03-01T07:02:25.737Z,104.95
2019-03-01T07:04:54.561Z,100.47
2019-03-01T07:07:23.743Z,125.75
2019-03-01T07:09:52.659Z,126.40
2019-03-01T07:12:21.835Z,104.75
2019-03-01T07:14:51.563Z,90.07
2019-03-01T07:17:20.472Z,114.62
2019-03-01T07:19:49.470Z,100.60
2019-03-01T07:22:18.429Z,100.25
2019-03-01T07:24:47.428Z,94.28
2019-03-01T07:27:16.435Z,83.80
2019-03-01T07:29:45.641Z,97.00
2019-03-01T07:32:14.889Z,92.97
2019-03-01T07:34:43.794Z,90.80
2019-03-01T07:37:12.744Z,99.65
2019-03-01T07:39:41.845Z,79.00
2019-03-01T07:42:10.901Z,78.70
2019-03-01T07:44:39.910Z,77.50
2019-03-01T07:47:08.862Z,87.67
2019-03-01T07:49:37.735Z,95.70
2019-03-01T07:52:06.767Z,93.12
2019-03-01T07:54:36.910Z,66.97
2019-03-01T07:57:05.895Z,60.33
2019-03-01T07:59:38.205Z,50.83
2019-03-01T08:02:05.265Z,56.85
2019-03-01T08:04:34.354Z,56.28
2019-03-01T08:07:03.275Z,65.05
2019-03-01T08:09:32.098Z,59.63
2019-03-01T08:12:03.675Z,52.78
2019-03-01T08:14:31.647Z,47.80
2019-03-01T08:17:00.813Z,49.55
2019-03-01T08:19:30.966Z,50.73
2019-03-01T08:22:00.071Z,51.73
2019-03-01T08:24:29.144Z,45.00
2019-03-01T08:26:57.921Z,47.00
2019-03-01T08:29:26.771Z,45.63
2019-03-01T08:31:55.905Z,41.23
2019-03-01T08:34:26.064Z,39.50
2019-03-01T08:36:55.905Z,37.95
2019-03-01T08:39:24.710Z,39.20
2019-03-01T08:41:53.364Z,39.15
2019-03-01T08:44:23.121Z,42.08
2019-03-01T08:46:52.845Z,38.25
2019-03-01T08:49:21.859Z,44.30
2019-03-01T08:51:51.083Z,40.35
2019-03-01T08:54:22.872Z,41.53
2019-03-01T08:56:50.443Z,38.05
2019-03-01T08:59:20.662Z,36.75
2019-03-01T09:01:49.405Z,39.53
2019-03-01T09:04:21.460Z,43.70
2019-03-01T09:06:48.856Z,39.05
2019-03-01T09:09:20.918Z,47.55
2019-03-01T09:11:48.532Z,48.35
2019-03-01T09:14:17.486Z,38.78
2019-03-01T09:16:46.858Z,36.30
2019-03-01T09:19:15.579Z,42.20
2019-03-01T09:21:49.979Z,38.70
2019-03-01T09:24:16.075Z,37.10
2019-03-01T09:26:45.192Z,34.83
2019-03-01T09:29:18.574Z,30.68
2019-03-01T09:31:44.891Z,33.00
2019-03-01T09:34:13.835Z,35.10
2019-03-01T09:36:44.117Z,35.45
2019-03-01T09:39:14.530Z,34.15
2019-03-01T09:41:43.665Z,33.67
2019-03-01T09:44:12.555Z,32.30
2019-03-01T09:46:42.743Z,36.25
2019-03-01T09:49:11.913Z,29.15
2019-03-01T09:51:43.688Z,33.13
2019-03-01T09:54:11.782Z,37.38
2019-03-01T09:56:40.585Z,34.40
2019-03-01T09:59:09.435Z,30.27
2019-03-01T10:01:39.495Z,36.20
2019-03-01T10:04:08.448Z,56.05
2019-03-01T10:06:38.282Z,35.15
2019-03-01T10:09:08.952Z,44.45
2019-03-01T10:11:38.061Z,32.78
2019-03-01T10:14:07.268Z,31.77
2019-03-01T10:16:36.314Z,30.48
2019-03-01T10:19:05.472Z,37.65
2019-03-01T10:21:34.426Z,31.73
2019-03-01T10:24:03.384Z,33.15
2019-03-01T10:26:32.614Z,30.32
2019-03-01T10:29:01.664Z,32.93
2019-03-01T10:31:30.412Z,32.83
2019-03-01T10:33:59.574Z,27.42
2019-03-01T10:36:28.283Z,28.95
2019-03-01T10:38:57.390Z,28.77
2019-03-01T10:41:26.618Z,50.73
2019-03-01T10:43:55.646Z,48.70
2019-03-01T10:46:24.525Z,26.73
2019-03-01T10:48:53.397Z,28.27
2019-03-01T10:51:23.676Z,27.25
2019-03-01T10:53:52.645Z,27.82
2019-03-01T10:56:21.558Z,25.95
2019-03-01T10:58:50.264Z,35.52
2019-03-01T11:01:19.064Z,21.42
2019-03-01T11:03:48.037Z,28.52
2019-03-01T11:06:16.870Z,27.17
2019-03-01T11:08:45.942Z,43.20
2019-03-01T11:11:14.667Z,30.15
2019-03-01T11:13:43.641Z,43.55
2019-03-01T11:16:12.403Z,24.07
2019-03-01T11:18:41.154Z,34.85
2019-03-01T11:21:10.259Z,34.20
2019-03-01T11:23:39.498Z,35.08
2019-03-01T11:26:08.647Z,28.62
2019-03-01T11:28:37.392Z,36.58
2019-03-01T11:31:06.375Z,35.35
2019-03-01T11:33:35.203Z,24.10
2019-03-01T11:36:04.843Z,21.12
2019-03-01T11:38:33.714Z,26.65
2019-03-01T11:41:02.482Z,33.55
2019-03-01T11:43:31.459Z,23.22
2019-03-01T11:46:00.882Z,26.60
2019-03-01T11:48:29.932Z,26.37
2019-03-01T11:50:59.122Z,25.23
2019-03-01T11:53:28.001Z,20.02
2019-03-01T11:55:57.054Z,23.32
2019-03-01T11:58:26.205Z,18.57
2019-03-01T12:00:54.873Z,20.15
2019-03-01T12:03:23.796Z,20.35
2019-03-01T12:05:52.856Z,17.27
2019-03-01T12:08:21.811Z,20.60
2019-03-01T12:10:51.816Z,30.25
2019-03-01T12:13:22.082Z,26.02
2019-03-01T12:15:51.038Z,54.00
2019-03-01T12:18:20.012Z,25.17
2019-03-01T12:20:48.911Z,16.77
2019-03-01T12:23:17.754Z,17.67
2019-03-01T12:25:46.845Z,18.48
2019-03-01T12:28:15.857Z,17.67
2019-03-01T12:30:44.978Z,22.82
2019-03-01T12:33:14.164Z,24.10
2019-03-01T12:35:43.356Z,22.30
2019-03-01T12:38:12.475Z,20.37
2019-03-01T12:40:41.443Z,24.12
2019-03-01T12:43:10.370Z,37.30
2019-03-01T12:45:39.481Z,26.60
2019-03-01T12:48:08.352Z,22.62
2019-03-01T12:50:37.183Z,17.80
2019-03-01T12:53:06.356Z,19.65
2019-03-01T12:55:35.071Z,18.00
2019-03-01T12:58:04.114Z,21.10
2019-03-01T13:00:33.804Z,18.98
2019-03-01T13:03:05.216Z,12.70
2019-03-01T13:05:33.369Z,13.48
2019-03-01T13:08:02.383Z,26.23
2019-03-01T13:10:32.878Z,15.63
2019-03-01T13:13:02.290Z,32.17
2019-03-01T13:15:32.504Z,14.65
2019-03-01T13:18:03.329Z,15.40
2019-03-01T13:20:33.750Z,15.60
2019-03-01T13:23:04.876Z,15.70
2019-03-01T13:25:33.089Z,19.02
2019-03-01T13:28:03.237Z,18.17
2019-03-01T13:30:32.503Z,17.80
2019-03-01T13:33:03.625Z,19.62
2019-03-01T13:35:32.920Z,24.80
2019-03-01T13:38:03.655Z,26.15
2019-03-01T13:40:32.290Z,24.35
2019-03-01T13:43:01.057Z,21.50
2019-03-01T13:45:29.901Z,25.20
2019-03-01T13:47:59.023Z,28.62
2019-03-01T13:50:27.823Z,22.98
2019-03-01T13:52:56.829Z,24.60
2019-03-01T13:55:27.606Z,20.80
2019-03-01T13:57:56.461Z,23.15
2019-03-01T14:00:25.268Z,18.73
2019-03-01T14:02:54.484Z,27.42
2019-03-01T14:05:23.692Z,31.05
2019-03-01T14:07:56.749Z,30.62
2019-03-01T14:10:29.709Z,30.52
2019-03-01T14:12:58.831Z,49.30
2019-03-01T14:15:29.734Z,36.13
2019-03-01T14:18:01.086Z,23.35
2019-03-01T14:20:28.202Z,21.73
2019-03-01T14:22:57.345Z,20.60
2019-03-01T14:25:26.071Z,16.05
2019-03-01T14:27:54.780Z,16.48
2019-03-01T14:30:29.140Z,33.78
2019-03-01T14:33:13.822Z,13.62
2019-03-01T14:35:42.496Z,15.85
2019-03-01T14:38:11.182Z,12.75
2019-03-01T14:40:40.003Z,13.03
2019-03-01T14:43:10.025Z,13.58
2019-03-01T14:45:41.736Z,18.60
2019-03-01T14:48:09.614Z,19.02
2019-03-01T14:50:38.674Z,20.23
2019-03-01T14:53:07.507Z,22.95
2019-03-01T14:55:37.691Z,19.30
2019-03-01T14:58:07.937Z,24.63
2019-03-01T15:00:37.963Z,17.80
2019-03-01T15:03:08.262Z,27.02
2019-03-01T15:05:38.741Z,22.07
2019-03-01T15:08:07.731Z,30.70
2019-03-01T15:10:37.804Z,39.48
2019-03-01T15:13:06.677Z,54.03
2019-03-01T15:15:35.409Z,58.00
2019-03-01T15:18:05.022Z,62.93
2019-03-01T15:20:33.889Z,82.78
2019-03-01T15:23:02.862Z,40.25
2019-03-01T15:25:35.120Z,38.92
2019-03-01T15:28:04.364Z,69.42
2019-03-01T15:30:33.054Z,59.25
2019-03-01T15:33:01.896Z,40.30
2019-03-01T15:35:30.669Z,25.12
2019-03-01T15:37:59.369Z,65.20
2019-03-01T15:40:31.500Z,42.27
2019-03-01T15:42:58.562Z,53.73
2019-03-01T15:45:28.443Z,50.98
2019-03-01T15:47:58.713Z,39.65
2019-03-01T15:50:28.223Z,51.15
2019-03-01T15:52:57.508Z,26.23
2019-03-01T15:55:29.573Z,13.95
2019-03-01T15:57:57.675Z,10.00
2019-03-01T16:00:29.465Z,21.75
2019-03-01T16:02:57.304Z,34.13
2019-03-01T16:05:26.164Z,14.15
2019-03-01T16:07:54.902Z,13.18
2019-03-01T16:10:24.039Z,16.10
2019-03-01T16:12:52.703Z,18.05
2019-03-01T16:15:21.802Z,43.15
2019-03-01T16:17:50.768Z,18.23
2019-03-01T16:20:20.407Z,321.43
2019-03-01T16:22:51.024Z,100.85
2019-03-01T16:25:20.617Z,46.40
2019-03-01T16:27:50.795Z,57.78
2019-03-01T16:30:21.866Z,34.18
2019-03-01T16:32:50.855Z,44.67
2019-03-01T16:35:20.062Z,40.05
2019-03-01T16:37:53.917Z,108.70
2019-03-01T16:40:24.195Z,72.72
2019-03-01T16:42:54.575Z,155.70
2019-03-01T16:45:23.501Z,255.10
2019-03-01T16:47:52.529Z,151.25
2019-03-01T16:50:21.383Z,172.40
2019-03-01T16:52:50.110Z,151.80
2019-03-01T16:55:19.713Z,135.93
2019-03-01T16:57:52.039Z,160.22
2019-03-01T17:00:19.583Z,173.02
2019-03-01T17:02:49.536Z,107.15
2019-03-01T17:05:18.288Z,69.77
2019-03-01T17:07:47.122Z,75.30
2019-03-01T17:10:17.293Z,138.70
2019-03-01T17:12:48.870Z,109.22
2019-03-01T17:15:17.933Z,74.80
2019-03-01T17:17:46.984Z,67.55
2019-03-01T17:20:15.817Z,38.80
2019-03-01T17:22:44.365Z,29.70
2019-03-01T17:25:15.783Z,32.88
2019-03-01T17:27:45.145Z,31.70
2019-03-01T17:30:15.352Z,21.50
2019-03-01T17:32:43.971Z,28.67
2019-03-01T17:35:14.695Z,21.65
2019-03-01T17:37:44.467Z,28.80
2019-03-01T17:40:15.779Z,30.35
2019-03-01T17:42:44.865Z,51.35
2019-03-01T17:45:17.296Z,41.20
2019-03-01T17:47:46.258Z,55.30
2019-03-01T17:50:15.119Z,114.28
2019-03-01T17:52:44.003Z,145.65
2019-03-01T17:55:13.513Z,134.47
2019-03-01T17:57:42.263Z,155.67
2019-03-01T18:00:14.854Z,181.18
2019-03-01T18:02:43.456Z,112.70
2019-03-01T18:05:12.574Z,79.05
2019-03-01T18:07:41.492Z,57.78
2019-03-01T18:10:14.363Z,37.30
2019-03-01T18:12:43.243Z,39.10
2019-03-01T18:15:13.408Z,40.45
2019-03-01T18:17:42.252Z,45.28
2019-03-01T18:20:11.772Z,56.58
2019-03-01T18:22:41.929Z,56.15
2019-03-01T18:25:11.224Z,68.40
2019-03-01T18:27:40.095Z,51.37
2019-03-01T18:30:16.212Z,53.65
2019-03-01T18:32:45.209Z,66.62
2019-03-01T18:35:14.185Z,85.00
2019-03-01T18:37:43.079Z,78.90
2019-03-01T18:40:13.530Z,81.57
2019-03-01T18:42:42.704Z,79.87
2019-03-01T18:45:15.733Z,51.13
2019-03-01T18:47:44.424Z,54.77
2019-03-01T18:50:17.574Z,81.70
2019-03-01T18:52:49.618Z,85.30
2019-03-01T18:55:18.485Z,119.55
2019-03-01T18:57:47.297Z,160.32
2019-03-01T19:00:23.690Z,167.30
2019-03-01T19:02:52.484Z,139.65
2019-03-01T19:05:22.405Z,122.92
2019-03-01T19:07:51.144Z,116.55
2019-03-01T19:10:23.980Z,127.00
2019-03-01T19:12:51.516Z,136.90
2019-03-01T19:15:20.307Z,159.97
2019-03-01T19:17:49.016Z,97.00
2019-03-01T19:20:22.603Z,125.22
2019-03-01T19:22:52.802Z,107.97
2019-03-01T19:25:24.861Z,105.25
2019-03-01T19:27:52.400Z,105.50
2019-03-01T19:30:22.194Z,95.62
2019-03-01T19:32:51.485Z,82.67
2019-03-01T19:35:20.218Z,70.55
2019-03-01T19:37:49.508Z,69.03
2019-03-01T19:40:21.434Z,71.53
2019-03-01T19:42:50.246Z,63.83
2019-03-01T19:45:19.332Z,50.45
2019-03-01T19:47:48.783Z,51.28
2019-03-01T19:50:25.080Z,56.02
2019-03-01T19:52:53.109Z,107.73
2019-03-01T19:55:22.927Z,108.57
2019-03-01T19:57:51.818Z,153.53
2019-03-01T20:00:27.965Z,78.72
2019-03-01T20:02:56.652Z,44.25
2019-03-01T20:05:33.219Z,42.40
2019-03-01T20:08:02.084Z,42.48
2019-03-01T20:10:30.842Z,37.73
2019-03-01T20:12:59.755Z,58.05
2019-03-01T20:15:29.435Z,36.70
2019-03-01T20:17:58.222Z,30.50
2019-03-01T20:20:30.006Z,27.73
2019-03-01T20:22:57.829Z,67.32
2019-03-01T20:25:26.391Z,68.78
2019-03-01T20:27:55.130Z,66.10
2019-03-01T20:30:30.208Z,121.92
2019-03-01T20:32:55.550Z,108.90
2019-03-01T20:35:25.831Z,80.07
2019-03-01T20:38:00.395Z,39.70
2019-03-01T20:40:28.286Z,32.13
2019-03-01T20:43:01.306Z,31.02
2019-03-01T20:45:29.986Z,36.83
2019-03-01T20:47:58.721Z,304.50
2019-03-01T20:50:27.442Z,177.85
2019-03-01T20:52:56.055Z,207.95
2019-03-01T20:55:24.844Z,103.22
2019-03-01T20:57:53.571Z,98.07
2019-03-01T21:00:26.101Z,104.25
2019-03-01T21:02:53.982Z,92.47
2019-03-01T21:05:24.954Z,70.22
2019-03-01T21:07:53.797Z,63.45
2019-03-01T21:10:28.266Z,47.27
2019-03-01T21:12:56.978Z,58.85
2019-03-01T21:15:25.723Z,48.48
2019-03-01T21:17:57.135Z,53.65
2019-03-01T21:20:26.289Z,60.63
2019-03-01T21:22:54.933Z,55.00
2019-03-01T21:25:24.575Z,56.18
2019-03-01T21:27:53.526Z,53.83
2019-03-01T21:30:24.240Z,64.75
2019-03-01T21:32:53.566Z,68.23
2019-03-01T21:35:22.496Z,63.17
2019-03-01T21:37:51.725Z,63.75
2019-03-01T21:40:20.864Z,81.15
2019-03-01T21:42:52.892Z,90.55
2019-03-01T21:45:22.434Z,107.30
2019-03-01T21:47:51.783Z,75.60
2019-03-01T21:50:20.953Z,70.95
2019-03-01T21:52:49.764Z,79.55
2019-03-01T21:55:20.343Z,88.58
2019-03-01T21:57:49.250Z,87.82
2019-03-01T22:00:29.953Z,84.30
2019-03-01T22:02:55.862Z,68.65
2019-03-01T22:05:24.679Z,66.12
2019-03-01T22:07:53.532Z,83.00
2019-03-01T22:10:22.155Z,92.40
2019-03-01T22:12:50.943Z,109.52
2019-03-01T22:15:27.285Z,105.17
2019-03-01T22:17:56.553Z,113.75
2019-03-01T22:20:25.723Z,118.20
2019-03-01T22:22:54.666Z,135.97
2019-03-01T22:25:23.394Z,176.35
2019-03-01T22:27:52.325Z,146.07
2019-03-01T22:30:28.643Z,247.50
2019-03-01T22:32:57.355Z,284.15
2019-03-01T22:35:26.105Z,304.32
2019-03-01T22:37:55.020Z,216.05
2019-03-01T22:40:27.584Z,223.03
2019-03-01T22:42:54.311Z,171.77
2019-03-01T22:45:23.028Z,154.85
2019-03-01T22:47:51.972Z,161.52
2019-03-01T22:50:20.998Z,142.95
2019-03-01T22:52:49.623Z,164.97
2019-03-01T22:55:18.788Z,153.95
2019-03-01T22:57:47.695Z,130.15
2019-03-01T23:00:47.715Z,142.77
2019-03-01T23:03:19.270Z,112.05
2019-03-01T23:05:48.883Z,74.85
2019-03-01T23:08:17.567Z,66.62
2019-03-01T23:10:47.398Z,57.98
2019-03-01T23:13:17.118Z,78.65
2019-03-01T23:15:46.802Z,108.65
2019-03-01T23:18:15.883Z,98.60
2019-03-01T23:20:44.790Z,107.63
2019-03-01T23:23:13.662Z,112.52
2019-03-01T23:25:42.709Z,117.65
2019-03-01T23:28:13.500Z,132.93
2019-03-01T23:30:42.364Z,115.32
2019-03-01T23:33:11.248Z,108.22
2019-03-01T23:35:40.444Z,109.05
2019-03-01T23:38:11.504Z,86.28
2019-03-01T23:40:39.797Z,105.37
2019-03-01T23:43:08.812Z,101.42
2019-03-01T23:45:37.931Z,94.60
2019-03-01T23:48:06.599Z,92.15
2019-03-01T23:50:35.775Z,100.50
2019-03-01T23:53:04.893Z,134.27
2019-03-01T23:55:33.842Z,168.82
2019-03-01T23:58:06.100Z,159.75
